createdAt,value
2018-09-08T00:01:58.422Z,2.50
2018-09-08T00:04:26.984Z,2.62
2018-09-08T00:07:00.893Z,2.70
2018-09-08T00:09:29.618Z,2.58
2018-09-08T00:11:58.152Z,2.60
2018-09-08T00:14:26.747Z,2.58
2018-09-08T00:17:00.424Z,2.45
2018-09-08T00:19:34.379Z,2.20
2018-09-08T00:22:08.918Z,2.50
2018-09-08T00:24:42.852Z,2.17
2018-09-08T00:27:10.613Z,2.47
2018-09-08T00:29:48.639Z,2.50
2018-09-08T00:32:18.074Z,2.50
2018-09-08T00:34:47.127Z,2.20
2018-09-08T00:37:15.775Z,2.17
2018-09-08T00:39:48.557Z,2.35
2018-09-08T00:42:17.168Z,2.17
2018-09-08T00:44:46.792Z,2.40
2018-09-08T00:47:15.558Z,2.10
2018-09-08T00:49:44.126Z,2.25
2018-09-08T00:52:12.684Z,2.00
2018-09-08T00:54:41.279Z,2.12
2018-09-08T00:57:09.939Z,2.22
2018-09-08T00:59:38.619Z,2.10
2018-09-08T01:02:07.225Z,1.98
2018-09-08T01:04:37.223Z,1.90
2018-09-08T01:07:09.991Z,1.92
2018-09-08T01:09:38.728Z,2.00
2018-09-08T01:12:07.301Z,2.10
2018-09-08T01:14:35.852Z,2.12
2018-09-08T01:17:04.416Z,1.92
2018-09-08T01:19:32.976Z,2.00
2018-09-08T01:22:01.496Z,1.80
2018-09-08T01:24:30.062Z,1.98
2018-09-08T01:26:58.759Z,1.90
2018-09-08T01:29:27.409Z,2.00
2018-09-08T01:31:55.980Z,1.67
2018-09-08T01:34:24.568Z,1.90
2018-09-08T01:36:53.154Z,1.77
2018-09-08T01:39:21.799Z,1.85
2018-09-08T01:41:50.492Z,2.00
2018-09-08T01:44:19.117Z,1.87
2018-09-08T01:46:48.991Z,1.67
2018-09-08T01:49:17.543Z,1.98
2018-09-08T01:51:46.158Z,1.90
2018-09-08T01:54:14.874Z,1.80
2018-09-08T01:56:43.456Z,1.62
2018-09-08T01:59:12.069Z,1.80
2018-09-08T02:01:40.685Z,1.57
2018-09-08T02:04:09.290Z,1.67
2018-09-08T02:06:39.768Z,1.60
2018-09-08T02:09:08.522Z,1.90
2018-09-08T02:11:37.111Z,1.42
2018-09-08T02:14:05.763Z,1.75
2018-09-08T02:16:34.356Z,1.60
2018-09-08T02:19:03.055Z,1.60
2018-09-08T02:21:31.616Z,1.55
2018-09-08T02:24:00.185Z,1.70
2018-09-08T02:26:28.778Z,1.60
2018-09-08T02:28:57.434Z,1.52
2018-09-08T02:31:26.091Z,1.50
2018-09-08T02:33:54.661Z,1.42
2018-09-08T02:36:23.194Z,1.60
2018-09-08T02:38:52.413Z,1.60
2018-09-08T02:41:20.995Z,1.50
2018-09-08T02:43:49.593Z,1.60
2018-09-08T02:46:18.135Z,1.62
2018-09-08T02:48:47.064Z,1.62
2018-09-08T02:51:14.441Z,1.47
2018-09-08T02:53:41.824Z,1.47
2018-09-08T02:56:09.219Z,1.50
2018-09-08T02:58:36.565Z,1.60
2018-09-08T03:01:03.949Z,1.60
2018-09-08T03:03:31.347Z,1.70
2018-09-08T03:05:58.714Z,1.60
2018-09-08T03:08:26.070Z,1.50
2018-09-08T03:10:53.417Z,1.60
2018-09-08T03:13:20.774Z,1.40
2018-09-08T03:15:48.124Z,1.45
2018-09-08T03:18:15.497Z,1.47
2018-09-08T03:20:42.866Z,1.40
2018-09-08T03:23:10.220Z,1.60
2018-09-08T03:25:37.606Z,1.40
2018-09-08T03:28:04.964Z,1.60
2018-09-08T03:30:32.343Z,1.42
2018-09-08T03:32:59.700Z,1.50
2018-09-08T03:35:27.053Z,1.40
2018-09-08T03:37:54.412Z,1.30
2018-09-08T03:40:21.788Z,1.40
2018-09-08T03:42:49.149Z,1.30
2018-09-08T03:45:16.492Z,1.25
2018-09-08T03:47:43.876Z,1.20
2018-09-08T03:50:11.265Z,1.30
2018-09-08T03:52:38.641Z,1.30
2018-09-08T03:55:06.068Z,1.20
2018-09-08T03:57:33.740Z,1.40
2018-09-08T04:00:01.236Z,1.30
2018-09-08T04:02:28.599Z,1.40
2018-09-08T04:04:57.158Z,1.40
2018-09-08T04:07:25.703Z,1.30
2018-09-08T04:09:54.224Z,1.30
2018-09-08T04:12:22.808Z,1.30
2018-09-08T04:14:51.417Z,1.25
2018-09-08T04:17:20.240Z,1.47
2018-09-08T04:19:48.775Z,1.30
2018-09-08T04:22:21.752Z,1.20
2018-09-08T04:24:50.306Z,1.20
2018-09-08T04:27:18.864Z,1.02
2018-09-08T04:29:47.414Z,1.32
2018-09-08T04:32:16.106Z,1.32
2018-09-08T04:34:44.715Z,1.30
2018-09-08T04:37:13.277Z,1.30
2018-09-08T04:39:41.853Z,1.35
2018-09-08T04:42:10.659Z,1.30
2018-09-08T04:44:39.235Z,1.27
2018-09-08T04:47:08.228Z,1.05
2018-09-08T04:49:36.808Z,1.27
2018-09-08T04:52:05.580Z,1.30
2018-09-08T04:54:34.143Z,1.20
2018-09-08T04:57:02.692Z,1.37
2018-09-08T04:59:31.250Z,1.20
2018-09-08T05:01:59.801Z,1.25
2018-09-08T05:04:28.361Z,1.30
2018-09-08T05:06:56.891Z,1.30
2018-09-08T05:09:25.483Z,1.30
2018-09-08T05:11:54.024Z,1.17
2018-09-08T05:14:22.600Z,1.10
2018-09-08T05:16:51.165Z,1.10
2018-09-08T05:19:19.747Z,1.10
2018-09-08T05:21:48.325Z,1.30
2018-09-08T05:24:17.007Z,1.10
2018-09-08T05:26:45.574Z,1.10
2018-09-08T05:29:14.164Z,1.30
2018-09-08T05:31:42.711Z,1.10
2018-09-08T05:34:11.442Z,1.20
2018-09-08T05:36:40.131Z,1.20
2018-09-08T05:39:09.189Z,1.10
2018-09-08T05:41:37.771Z,1.40
2018-09-08T05:44:06.345Z,1.47
2018-09-08T05:46:34.913Z,1.40
2018-09-08T05:49:03.487Z,1.30
2018-09-08T05:51:32.072Z,1.32
2018-09-08T05:54:00.626Z,1.30
2018-09-08T05:56:29.174Z,1.20
2018-09-08T05:58:57.707Z,1.30
2018-09-08T06:01:26.350Z,1.27
2018-09-08T06:03:55.117Z,1.25
2018-09-08T06:06:23.665Z,1.27
2018-09-08T06:08:52.248Z,1.20
2018-09-08T06:11:20.813Z,1.20
2018-09-08T06:13:49.380Z,1.10
2018-09-08T06:16:17.916Z,1.20
2018-09-08T06:18:46.572Z,1.20
2018-09-08T06:21:15.185Z,1.25
2018-09-08T06:23:43.696Z,1.30
2018-09-08T06:26:12.255Z,1.20
2018-09-08T06:28:40.916Z,1.20
2018-09-08T06:31:10.353Z,1.17
2018-09-08T06:33:38.956Z,1.30
2018-09-08T06:36:08.272Z,1.10
2018-09-08T06:38:36.866Z,1.40
2018-09-08T06:41:05.452Z,1.30
2018-09-08T06:43:34.028Z,1.30
2018-09-08T06:46:02.604Z,1.40
2018-09-08T06:48:31.138Z,1.40
2018-09-08T06:50:59.741Z,1.30
2018-09-08T06:53:28.423Z,1.35
2018-09-08T06:55:56.997Z,1.32
2018-09-08T06:58:25.608Z,1.20
2018-09-08T07:00:54.214Z,1.20
2018-09-08T07:03:22.857Z,1.20
2018-09-08T07:05:51.410Z,1.20
2018-09-08T07:08:19.988Z,1.20
2018-09-08T07:10:48.735Z,1.40
2018-09-08T07:13:17.359Z,1.40
2018-09-08T07:15:45.933Z,1.30
2018-09-08T07:18:14.491Z,1.40
2018-09-08T07:20:43.046Z,1.20
2018-09-08T07:23:11.635Z,1.40
2018-09-08T07:25:40.179Z,1.20
2018-09-08T07:28:08.794Z,1.50
2018-09-08T07:30:37.387Z,1.42
2018-09-08T07:33:06.099Z,1.25
2018-09-08T07:35:34.676Z,1.20
2018-09-08T07:38:03.286Z,1.40
2018-09-08T07:40:31.940Z,1.50
2018-09-08T07:43:00.552Z,1.27
2018-09-08T07:45:29.293Z,1.32
2018-09-08T07:47:57.880Z,1.10
2018-09-08T07:50:27.100Z,1.30
2018-09-08T07:52:55.672Z,1.30
2018-09-08T07:55:24.266Z,1.20
2018-09-08T07:57:52.816Z,1.37
2018-09-08T08:00:21.401Z,1.15
2018-09-08T08:02:49.964Z,1.32
2018-09-08T08:05:18.648Z,1.40
2018-09-08T08:07:47.243Z,1.30
2018-09-08T08:10:15.820Z,1.22
2018-09-08T08:12:44.365Z,1.47
2018-09-08T08:15:12.963Z,1.40
2018-09-08T08:17:41.495Z,1.32
2018-09-08T08:20:10.164Z,1.55
2018-09-08T08:22:38.734Z,1.40
2018-09-08T08:25:07.352Z,1.30
2018-09-08T08:27:35.891Z,1.32
2018-09-08T08:30:04.512Z,1.30
2018-09-08T08:32:33.171Z,1.35
2018-09-08T08:35:01.801Z,1.40
2018-09-08T08:37:30.389Z,1.27
2018-09-08T08:39:59.008Z,1.20
2018-09-08T08:42:27.584Z,1.30
2018-09-08T08:44:56.135Z,1.30
2018-09-08T08:47:24.763Z,1.20
2018-09-08T08:50:04.445Z,1.30
2018-09-08T08:52:44.212Z,1.30
2018-09-08T08:55:11.725Z,1.72
2018-09-08T08:57:40.446Z,1.37
2018-09-08T09:00:09.057Z,1.50
2018-09-08T09:02:37.657Z,1.20
2018-09-08T09:05:06.307Z,1.17
2018-09-08T09:07:35.260Z,1.37
2018-09-08T09:10:03.588Z,1.35
2018-09-08T09:12:32.404Z,1.30
2018-09-08T09:15:00.991Z,1.40
2018-09-08T09:17:29.318Z,1.40
2018-09-08T09:20:09.024Z,1.27
2018-09-08T09:22:48.765Z,1.20
2018-09-08T09:25:17.422Z,1.20
2018-09-08T09:27:48.260Z,1.32
2018-09-08T09:30:17.499Z,1.20
2018-09-08T09:32:46.227Z,1.20
2018-09-08T09:35:18.073Z,1.30
2018-09-08T09:37:46.760Z,1.25
2018-09-08T09:40:16.520Z,1.30
2018-09-08T09:42:45.113Z,1.35
2018-09-08T09:45:13.705Z,1.30
2018-09-08T09:47:42.303Z,1.30
2018-09-08T09:50:11.843Z,1.40
2018-09-08T09:52:40.636Z,1.10
2018-09-08T09:55:10.029Z,1.20
2018-09-08T09:57:38.679Z,1.30
2018-09-08T10:00:08.813Z,1.37
2018-09-08T10:02:40.660Z,1.30
2018-09-08T10:05:12.397Z,1.40
2018-09-08T10:07:41.116Z,1.30
2018-09-08T10:10:12.087Z,1.60
2018-09-08T10:12:40.841Z,1.65
2018-09-08T10:15:09.925Z,1.40
2018-09-08T10:17:39.212Z,1.60
2018-09-08T10:20:12.056Z,1.27
2018-09-08T10:22:40.624Z,1.60
2018-09-08T10:25:11.278Z,1.50
2018-09-08T10:27:39.957Z,1.60
2018-09-08T10:30:09.493Z,2.12
2018-09-08T10:32:38.130Z,2.02
2018-09-08T10:35:06.933Z,1.90
2018-09-08T10:37:35.592Z,1.92
2018-09-08T10:40:04.364Z,1.40
2018-09-08T10:42:33.071Z,1.55
2018-09-08T10:45:01.812Z,1.40
2018-09-08T10:47:30.377Z,1.37
2018-09-08T10:49:58.960Z,1.40
2018-09-08T10:52:32.680Z,1.62
2018-09-08T10:55:01.312Z,1.60
2018-09-08T10:57:29.867Z,1.50
2018-09-08T10:59:58.950Z,1.42
2018-09-08T11:02:27.740Z,1.55
2018-09-08T11:04:56.138Z,1.42
2018-09-08T11:07:24.721Z,1.50
2018-09-08T11:09:53.320Z,1.55
2018-09-08T11:12:21.915Z,1.80
2018-09-08T11:14:50.571Z,1.47
2018-09-08T11:17:19.164Z,1.22
2018-09-08T11:19:47.783Z,1.40
2018-09-08T11:22:16.443Z,1.47
2018-09-08T11:24:45.049Z,1.20
2018-09-08T11:27:13.660Z,1.60
2018-09-08T11:29:42.238Z,1.50
2018-09-08T11:32:10.832Z,1.67
2018-09-08T11:34:39.380Z,1.60
2018-09-08T11:37:07.914Z,1.55
2018-09-08T11:39:36.528Z,1.60
2018-09-08T11:42:05.193Z,1.65
2018-09-08T11:44:33.916Z,1.40
2018-09-08T11:47:02.639Z,1.47
2018-09-08T11:49:31.330Z,1.60
2018-09-08T11:51:59.950Z,1.30
2018-09-08T11:54:28.529Z,1.40
2018-09-08T11:56:57.512Z,1.55
2018-09-08T11:59:26.086Z,1.50
2018-09-08T12:01:54.739Z,1.55
2018-09-08T12:04:23.293Z,1.40
2018-09-08T12:06:51.893Z,1.30
2018-09-08T12:09:20.461Z,1.40
2018-09-08T12:11:49.044Z,1.62
2018-09-08T12:14:17.624Z,1.30
2018-09-08T12:16:46.199Z,1.30
2018-09-08T12:19:14.838Z,1.47
2018-09-08T12:21:43.343Z,1.50
2018-09-08T12:24:11.889Z,1.50
2018-09-08T12:26:40.410Z,1.62
2018-09-08T12:29:08.995Z,1.50
2018-09-08T12:31:37.589Z,1.50
2018-09-08T12:34:06.180Z,1.40
2018-09-08T12:36:34.725Z,1.40
2018-09-08T12:39:03.592Z,1.60
2018-09-08T12:41:32.233Z,1.32
2018-09-08T12:44:00.855Z,1.50
2018-09-08T12:46:29.439Z,1.50
2018-09-08T12:48:57.990Z,1.50
2018-09-08T12:51:26.536Z,1.50
2018-09-08T12:53:55.109Z,1.60
2018-09-08T12:56:23.648Z,1.52
2018-09-08T12:58:52.206Z,1.40
2018-09-08T13:01:20.725Z,1.42
2018-09-08T13:03:49.321Z,1.60
2018-09-08T13:06:17.926Z,1.60
2018-09-08T13:08:46.513Z,1.40
2018-09-08T13:11:15.126Z,1.90
2018-09-08T13:13:43.722Z,1.60
2018-09-08T13:16:12.304Z,1.60
2018-09-08T13:18:40.854Z,1.70
2018-09-08T13:21:12.482Z,1.70
2018-09-08T13:23:41.168Z,1.60
2018-09-08T13:26:09.760Z,1.70
2018-09-08T13:28:38.309Z,1.62
2018-09-08T13:31:06.863Z,1.80
2018-09-08T13:33:35.428Z,1.77
2018-09-08T13:36:04.022Z,1.92
2018-09-08T13:38:32.580Z,1.85
2018-09-08T13:41:01.164Z,1.67
2018-09-08T13:43:29.737Z,1.70
2018-09-08T13:45:58.363Z,1.75
2018-09-08T13:48:26.956Z,1.90
2018-09-08T13:50:55.562Z,1.70
2018-09-08T13:53:24.178Z,1.70
2018-09-08T13:55:52.808Z,1.80
2018-09-08T13:58:21.469Z,1.70
2018-09-08T14:00:50.012Z,1.98
2018-09-08T14:03:18.576Z,1.60
2018-09-08T14:05:47.146Z,1.82
2018-09-08T14:08:16.718Z,1.70
2018-09-08T14:10:46.391Z,1.82
2018-09-08T14:13:15.014Z,1.80
2018-09-08T14:15:43.589Z,1.60
2018-09-08T14:18:12.135Z,1.77
2018-09-08T14:20:40.721Z,1.82
2018-09-08T14:23:09.375Z,1.80
2018-09-08T14:25:37.969Z,1.67
2018-09-08T14:28:06.588Z,1.75
2018-09-08T14:30:35.816Z,1.55
2018-09-08T14:33:04.384Z,1.80
2018-09-08T14:35:32.962Z,1.80
2018-09-08T14:38:01.543Z,1.60
2018-09-08T14:40:30.101Z,1.47
2018-09-08T14:42:58.677Z,1.80
2018-09-08T14:45:27.270Z,1.40
2018-09-08T14:47:55.868Z,1.30
2018-09-08T14:50:24.656Z,1.55
2018-09-08T14:52:53.228Z,1.50
2018-09-08T14:55:21.820Z,1.50
2018-09-08T14:57:50.421Z,1.50
2018-09-08T15:00:19.126Z,1.27
2018-09-08T15:02:47.732Z,1.40
2018-09-08T15:05:16.296Z,1.35
2018-09-08T15:07:44.976Z,1.20
2018-09-08T15:10:13.628Z,1.37
2018-09-08T15:12:42.216Z,1.50
2018-09-08T15:15:11.272Z,1.50
2018-09-08T15:17:39.994Z,1.50
2018-09-08T15:20:08.608Z,1.50
2018-09-08T15:22:37.215Z,1.50
2018-09-08T15:25:06.021Z,1.60
2018-09-08T15:27:34.568Z,1.40
2018-09-08T15:30:03.117Z,1.77
2018-09-08T15:32:31.686Z,1.60
2018-09-08T15:35:00.584Z,1.70
2018-09-08T15:37:29.135Z,1.80
2018-09-08T15:39:57.728Z,1.87
2018-09-08T15:42:26.312Z,2.10
2018-09-08T15:44:54.898Z,2.55
2018-09-08T15:47:23.541Z,2.47
2018-09-08T15:49:52.153Z,2.30
2018-09-08T15:52:20.690Z,2.20
2018-09-08T15:54:49.284Z,2.20
2018-09-08T15:57:17.894Z,2.10
2018-09-08T15:59:46.521Z,1.80
2018-09-08T16:02:15.135Z,2.00
2018-09-08T16:04:43.715Z,2.00
2018-09-08T16:07:12.654Z,1.80
2018-09-08T16:09:41.237Z,1.60
2018-09-08T16:12:09.825Z,1.60
2018-09-08T16:14:38.416Z,1.70
2018-09-08T16:17:06.992Z,1.60
2018-09-08T16:19:35.546Z,1.70
2018-09-08T16:22:04.112Z,1.55
2018-09-08T16:24:32.687Z,1.57
2018-09-08T16:27:01.294Z,1.52
2018-09-08T16:29:29.978Z,1.55
2018-09-08T16:31:58.561Z,1.47
2018-09-08T16:34:27.158Z,1.60
2018-09-08T16:36:55.788Z,1.57
2018-09-08T16:39:24.388Z,1.60
2018-09-08T16:41:52.964Z,1.47
2018-09-08T16:44:21.520Z,1.50
2018-09-08T16:46:50.083Z,1.30
2018-09-08T16:49:18.721Z,1.40
2018-09-08T16:51:47.295Z,1.30
2018-09-08T16:54:15.932Z,1.20
2018-09-08T16:56:44.512Z,1.30
2018-09-08T16:59:14.382Z,1.20
2018-09-08T17:01:42.964Z,1.20
2018-09-08T17:04:11.742Z,1.20
2018-09-08T17:06:40.390Z,1.27
2018-09-08T17:09:09.183Z,1.27
2018-09-08T17:11:38.153Z,1.20
2018-09-08T17:14:06.806Z,1.10
2018-09-08T17:16:35.416Z,1.20
2018-09-08T17:19:03.977Z,1.32
2018-09-08T17:21:32.549Z,1.17
2018-09-08T17:24:01.110Z,1.20
2018-09-08T17:26:29.756Z,1.30
2018-09-08T17:28:58.287Z,1.22
2018-09-08T17:31:26.829Z,1.20
2018-09-08T17:33:55.401Z,1.10
2018-09-08T17:36:24.027Z,1.20
2018-09-08T17:38:52.670Z,1.20
2018-09-08T17:41:21.152Z,1.22
2018-09-08T17:43:49.840Z,1.12
2018-09-08T17:46:18.480Z,1.30
2018-09-08T17:48:47.059Z,1.30
2018-09-08T17:51:16.227Z,1.20
2018-09-08T17:53:44.777Z,1.30
2018-09-08T17:56:13.382Z,1.30
2018-09-08T17:58:41.950Z,1.35
2018-09-08T18:01:10.511Z,1.10
2018-09-08T18:03:39.108Z,1.30
2018-09-08T18:06:07.737Z,1.10
2018-09-08T18:08:36.291Z,1.40
2018-09-08T18:11:04.906Z,1.40
2018-09-08T18:13:33.575Z,1.30
2018-09-08T18:16:02.169Z,1.10
2018-09-08T18:18:30.763Z,1.27
2018-09-08T18:20:59.415Z,1.10
2018-09-08T18:23:27.977Z,1.10
2018-09-08T18:25:56.650Z,1.10
2018-09-08T18:28:25.268Z,0.90
2018-09-08T18:30:53.852Z,1.00
2018-09-08T18:33:22.412Z,1.20
2018-09-08T18:35:53.468Z,1.10
2018-09-08T18:38:22.199Z,1.00
2018-09-08T18:40:50.805Z,1.17
2018-09-08T18:43:19.680Z,1.10
2018-09-08T18:45:48.259Z,1.15
2018-09-08T18:48:16.863Z,1.00
2018-09-08T18:50:45.489Z,0.95
2018-09-08T18:53:14.589Z,1.00
2018-09-08T18:55:43.403Z,1.02
2018-09-08T18:58:12.092Z,1.20
2018-09-08T19:00:40.698Z,1.00
2018-09-08T19:03:09.314Z,1.10
2018-09-08T19:05:37.956Z,1.00
2018-09-08T19:08:06.567Z,1.15
2018-09-08T19:10:35.794Z,1.10
2018-09-08T19:13:05.066Z,1.20
2018-09-08T19:15:33.614Z,1.10
2018-09-08T19:18:02.214Z,1.00
2018-09-08T19:20:37.820Z,1.02
2018-09-08T19:23:06.679Z,1.00
2018-09-08T19:25:35.624Z,0.95
2018-09-08T19:28:05.369Z,1.02
2018-09-08T19:30:33.955Z,1.15
2018-09-08T19:33:02.551Z,1.00
2018-09-08T19:35:39.799Z,0.98
2018-09-08T19:38:08.642Z,1.10
2018-09-08T19:40:42.552Z,1.17
2018-09-08T19:43:11.199Z,1.85
2018-09-08T19:45:39.813Z,1.98
2018-09-08T19:48:09.908Z,1.82
2018-09-08T19:50:38.468Z,1.90
2018-09-08T19:53:12.675Z,1.87
2018-09-08T19:55:41.359Z,1.70
2018-09-08T19:58:16.082Z,1.70
2018-09-08T20:00:44.803Z,1.95
2018-09-08T20:03:13.720Z,1.87
2018-09-08T20:05:42.424Z,1.70
2018-09-08T20:08:11.133Z,1.90
2018-09-08T20:10:39.709Z,1.90
2018-09-08T20:13:08.308Z,1.60
2018-09-08T20:15:37.628Z,1.70
2018-09-08T20:18:06.218Z,1.80
2018-09-08T20:20:34.760Z,1.80
2018-09-08T20:23:03.319Z,1.60
2018-09-08T20:25:31.945Z,1.80
2018-09-08T20:28:00.553Z,1.80
2018-09-08T20:30:29.244Z,2.00
2018-09-08T20:32:57.926Z,1.70
2018-09-08T20:35:26.497Z,1.82
2018-09-08T20:37:55.060Z,1.80
2018-09-08T20:40:23.681Z,1.70
2018-09-08T20:42:52.301Z,1.52
2018-09-08T20:45:20.872Z,1.70
2018-09-08T20:47:49.555Z,1.50
2018-09-08T20:50:18.200Z,1.80
2018-09-08T20:52:46.782Z,1.70
2018-09-08T20:55:15.976Z,1.52
2018-09-08T20:57:44.641Z,1.80
2018-09-08T21:00:13.238Z,1.70
2018-09-08T21:02:41.837Z,1.70
2018-09-08T21:05:10.451Z,1.82
2018-09-08T21:07:39.060Z,1.60
2018-09-08T21:10:07.654Z,1.70
2018-09-08T21:12:36.228Z,1.80
2018-09-08T21:15:05.042Z,1.80
2018-09-08T21:17:33.596Z,1.72
2018-09-08T21:20:02.139Z,1.77
2018-09-08T21:22:30.736Z,1.90
2018-09-08T21:24:59.362Z,1.90
2018-09-08T21:27:27.991Z,1.80
2018-09-08T21:29:56.634Z,1.70
2018-09-08T21:32:25.363Z,1.55
2018-09-08T21:34:53.915Z,1.62
2018-09-08T21:37:22.460Z,1.75
2018-09-08T21:39:51.033Z,1.80
2018-09-08T21:42:19.556Z,1.70
2018-09-08T21:44:48.160Z,1.52
2018-09-08T21:47:17.450Z,1.80
2018-09-08T21:49:45.999Z,1.70
2018-09-08T21:52:14.637Z,1.70
2018-09-08T21:54:43.199Z,1.55
2018-09-08T21:57:11.765Z,1.70
2018-09-08T21:59:40.336Z,1.62
2018-09-08T22:02:09.761Z,1.67
2018-09-08T22:04:38.890Z,1.95
2018-09-08T22:07:07.511Z,1.80
2018-09-08T22:09:36.082Z,1.60
2018-09-08T22:12:05.092Z,1.67
2018-09-08T22:14:33.658Z,1.70
2018-09-08T22:17:02.199Z,1.87
2018-09-08T22:19:30.735Z,1.47
2018-09-08T22:21:59.332Z,1.80
2018-09-08T22:24:27.969Z,1.60
2018-09-08T22:26:56.528Z,1.50
2018-09-08T22:29:25.091Z,1.70
2018-09-08T22:31:53.655Z,1.50
2018-09-08T22:34:22.223Z,1.87
2018-09-08T22:36:50.773Z,1.80
2018-09-08T22:39:19.343Z,1.57
2018-09-08T22:41:47.892Z,1.90
2018-09-08T22:44:16.474Z,1.95
2018-09-08T22:46:45.012Z,1.70
2018-09-08T22:49:13.582Z,1.90
2018-09-08T22:51:42.288Z,1.65
2018-09-08T22:54:10.842Z,1.70
2018-09-08T22:56:39.415Z,1.60
2018-09-08T22:59:07.971Z,1.70
2018-09-08T23:01:36.566Z,1.80
2018-09-08T23:04:05.163Z,1.60
2018-09-08T23:06:33.703Z,1.50
2018-09-08T23:09:02.342Z,1.70
2018-09-08T23:11:30.909Z,1.65
2018-09-08T23:13:59.427Z,1.80
2018-09-08T23:16:27.958Z,1.62
2018-09-08T23:18:56.521Z,1.72
2018-09-08T23:21:25.169Z,1.62
2018-09-08T23:23:53.718Z,1.65
2018-09-08T23:26:22.279Z,1.87
2018-09-08T23:28:50.815Z,1.75
2018-09-08T23:31:19.350Z,1.70
2018-09-08T23:33:47.943Z,1.80
2018-09-08T23:36:16.489Z,1.70
2018-09-08T23:38:45.053Z,1.72
2018-09-08T23:41:13.594Z,1.50
2018-09-08T23:43:42.120Z,1.80
2018-09-08T23:46:10.680Z,1.67
2018-09-08T23:48:39.240Z,1.80
2018-09-08T23:51:08.159Z,1.70
2018-09-08T23:53:36.868Z,1.70
2018-09-08T23:56:05.438Z,1.75
2018-09-08T23:58:34.013Z,1.70
